Terminal Aerodrome Forecast
Issued by NWS

Current Version | Previous Version | Text Only | Print | Product List | Glossary On
Versions: 1 2 3 4 5 6 7 8 9 10 11 12 13 14 15 16 17 18 19 20 21 22 23 24 25 26 27 28 29
000
FTAK31 PANC 291124
TAFADL
TAF
PADL 291124Z 2912/3012 33011KT P6SM OVC070
     FM291700 36012G21KT P6SM FEW250
     FM300600 36006KT P6SM SKC
      AMD LTD TO CLD VIS AND WIND TIL 291600=

USA.gov is the U.S. government's official web portal to all federal, state and local government web resources and services.